Terminal Aerodrome Forecast
Issued by NWS Wilmington, OH

Current Version | Previous Version | Graphics & Text | Print | Product List | Glossary On
Versions: 1 2 3 4 5 6 7 8 9 10 11 12 13 14 15 16 17 18 19 20 21 22 23
000
FTUS41 KILN 221000 AAB
TAFCVG
TAF AMD
KCVG 221054Z 2211/2312 26005KT P6SM OVC060
     FM221300 30012KT P6SM SCT015
      TEMPO 2213/2215 BKN015
     FM221500 31015KT P6SM SCT025
     FM221700 32016G23KT P6SM FEW040
     FM230000 34010KT P6SM SKC=

USA.gov is the U.S. government's official web portal to all federal, state and local government web resources and services.